Time;durP1;ratioP1;P1;durP2;ratioP2;P2;SDS_P1;SDS_P2;PMS_P1;PMS_P2;Temp;Humidity;BMP_temperature;BMP_pressure;BME280_temperature;BME280_humidity;BME280_pressure;Samples;Min_cycle;Max_cycle;Signal;HPM_P1;HPM_P2
2022/06/03 00:00:37;;;;;;;8.23;4.32;;;11.10;99.90;;;;;;4989164;28;20081;-72
2022/06/03 00:03:24;;;;;;;8.52;4.78;;;11.10;99.90;;;;;;4981862;28;20088;-72
2022/06/03 00:06:16;;;;;;;7.75;4.28;;;11.20;99.90;;;;;;4988992;28;20033;-72
2022/06/03 00:09:12;;;;;;;6.35;4.07;;;11.20;99.90;;;;;;4988403;28;20489;-72
2022/06/03 00:12:20;;;;;;;11.18;4.53;;;11.10;99.90;;;;;;4986163;28;20023;-73
2022/06/03 00:15:19;;;;;;;9.27;4.50;;;11.10;99.90;;;;;;4982686;28;20081;-72
2022/06/03 00:18:17;;;;;;;7.90;4.78;;;11.00;99.90;;;;;;4985885;28;20097;-73
2022/06/03 00:21:02;;;;;;;8.70;4.57;;;11.10;99.90;;;;;;4984382;28;20430;-72
2022/06/03 00:23:55;;;;;;;9.40;5.18;;;11.00;99.90;;;;;;4985609;28;20027;-72
2022/06/03 00:26:45;;;;;;;11.60;5.63;;;11.00;99.90;;;;;;4980527;28;20490;-72
2022/06/03 00:29:47;;;;;;;10.88;5.75;;;11.00;99.90;;;;;;4986588;28;20045;-72
2022/06/03 00:32:46;;;;;;;9.60;4.60;;;11.00;99.90;;;;;;4982790;28;20048;-72
2022/06/03 00:35:30;;;;;;;7.60;4.50;;;11.00;99.90;;;;;;4993219;28;20029;-72
2022/06/03 00:38:19;;;;;;;12.48;4.50;;;10.90;99.90;;;;;;4993630;28;20132;-72
2022/06/03 00:41:04;;;;;;;7.18;4.68;;;10.80;99.90;;;;;;4994787;28;20120;-73
2022/06/03 00:43:42;;;;;;;9.63;5.07;;;10.80;99.90;;;;;;4995955;28;20026;-73
2022/06/03 00:46:22;;;;;;;11.35;5.25;;;10.90;99.90;;;;;;4996269;28;20026;-73
2022/06/03 00:48:57;;;;;;;7.95;4.93;;;10.90;99.90;;;;;;4994660;28;20030;-73
2022/06/03 00:51:53;;;;;;;7.95;4.80;;;10.80;99.90;;;;;;4994433;28;20054;-72
2022/06/03 00:54:22;;;;;;;10.88;4.70;;;10.80;99.90;;;;;;4992996;28;20110;-72
2022/06/03 00:56:59;;;;;;;7.20;4.78;;;10.70;99.90;;;;;;4989224;28;20030;-73
2022/06/03 00:59:43;;;;;;;9.57;5.00;;;10.70;99.90;;;;;;4992873;28;20027;-72
2022/06/03 01:02:27;;;;;;;9.23;6.03;;;10.70;99.90;;;;;;4987608;28;20105;-73
2022/06/03 01:05:11;;;;;;;10.57;5.70;;;10.70;99.90;;;;;;4995034;28;20064;-73
2022/06/03 01:07:46;;;;;;;10.35;5.10;;;10.70;99.90;;;;;;4992747;28;20026;-73
2022/06/03 01:10:24;;;;;;;10.05;4.95;;;10.70;99.90;;;;;;4990792;28;20031;-72
2022/06/03 01:12:52;;;;;;;7.38;4.85;;;10.70;99.90;;;;;;4990992;28;20499;-73
2022/06/03 01:15:30;;;;;;;9.25;5.55;;;10.70;99.90;;;;;;4995632;28;20042;-73
2022/06/03 01:18:13;;;;;;;8.55;5.30;;;10.60;99.90;;;;;;4973476;28;20034;-72
2022/06/03 01:20:47;;;;;;;7.90;5.00;;;10.60;99.90;;;;;;4992543;28;20045;-72
2022/06/03 01:23:38;;;;;;;6.80;4.40;;;10.50;99.90;;;;;;4992491;28;20061;-72
2022/06/03 01:26:21;;;;;;;10.40;5.27;;;10.50;99.90;;;;;;4991485;28;20030;-73
2022/06/03 01:28:48;;;;;;;9.02;4.97;;;10.50;99.90;;;;;;4993862;28;20030;-73
2022/06/03 01:31:38;;;;;;;10.25;5.68;;;10.40;99.90;;;;;;4988417;28;20042;-72
2022/06/03 01:34:43;;;;;;;8.80;5.22;;;10.50;99.90;;;;;;4992960;28;20030;-73
2022/06/03 01:37:34;;;;;;;8.77;5.00;;;10.50;99.90;;;;;;4990488;28;20026;-73
2022/06/03 01:40:11;;;;;;;;;;;10.50;99.90;;;;;;4976853;28;20061;-73
2022/06/03 01:42:56;;;;;;;10.88;5.50;;;10.40;99.90;;;;;;4986578;28;19909;-73
2022/06/03 01:45:51;;;;;;;9.07;5.38;;;10.50;99.90;;;;;;4990635;28;20026;-73
2022/06/03 01:48:32;;;;;;;10.98;5.13;;;10.50;99.90;;;;;;5002722;28;20093;-72
2022/06/03 01:51:23;;;;;;;10.15;5.25;;;10.50;99.90;;;;;;4989488;28;20030;-73
2022/06/03 01:54:17;;;;;;;8.48;4.80;;;10.40;99.90;;;;;;4985105;28;20501;-72
2022/06/03 01:57:03;;;;;;;11.20;5.68;;;10.40;99.90;;;;;;4989449;28;20035;-72
2022/06/03 01:59:57;;;;;;;8.60;5.38;;;10.30;99.90;;;;;;4987343;28;20022;-72
2022/06/03 02:02:44;;;;;;;9.80;5.50;;;10.30;99.90;;;;;;4984536;28;20109;-71
2022/06/03 02:05:35;;;;;;;9.70;5.47;;;10.20;99.90;;;;;;4988877;28;20034;-71
2022/06/03 02:08:09;;;;;;;10.10;6.15;;;10.20;99.90;;;;;;4987338;28;20034;-71
2022/06/03 02:11:19;;;;;;;9.38;5.55;;;10.30;99.90;;;;;;4983948;28;20038;-72
2022/06/03 02:14:19;;;;;;;9.95;5.25;;;10.30;99.90;;;;;;4952212;28;20454;-72
2022/06/03 02:17:03;;;;;;;9.27;5.07;;;10.20;99.90;;;;;;4950552;28;20034;-72
2022/06/03 02:19:50;;;;;;;8.55;5.68;;;10.20;99.90;;;;;;4982460;28;20387;-72
2022/06/03 02:22:37;;;;;;;8.48;5.30;;;10.10;99.90;;;;;;4986342;28;20034;-72
2022/06/03 02:25:33;;;;;;;8.98;5.53;;;10.10;99.90;;;;;;4975040;28;20030;-71
2022/06/03 02:28:17;;;;;;;10.00;5.60;;;10.00;99.90;;;;;;4981900;28;20086;-72
2022/06/03 02:30:54;;;;;;;9.30;5.63;;;10.00;99.90;;;;;;4975656;28;20026;-72
2022/06/03 02:33:57;;;;;;;10.57;6.35;;;10.00;99.90;;;;;;4977717;28;20027;-72
2022/06/03 02:36:41;;;;;;;7.80;5.50;;;10.00;99.90;;;;;;4974434;28;20026;-72
2022/06/03 02:39:30;;;;;;;6.88;5.53;;;10.00;99.90;;;;;;4978639;28;20113;-72
2022/06/03 02:42:20;;;;;;;10.68;6.28;;;10.00;99.90;;;;;;4977407;28;20130;-72
2022/06/03 02:45:03;;;;;;;9.73;6.72;;;9.90;99.90;;;;;;4976125;28;20030;-72
2022/06/03 02:47:55;;;;;;;8.98;6.25;;;9.90;99.90;;;;;;4981780;28;20037;-72
2022/06/03 02:50:24;;;;;;;12.05;6.35;;;9.90;99.90;;;;;;4976024;28;20027;-72
2022/06/03 02:53:05;;;;;;;11.05;6.50;;;10.00;99.90;;;;;;4976862;28;20033;-72
2022/06/03 02:55:59;;;;;;;12.77;6.65;;;10.00;99.90;;;;;;4976804;28;20037;-72
2022/06/03 02:59:03;;;;;;;9.25;6.65;;;10.00;99.90;;;;;;4996303;28;20049;-72
2022/06/03 03:01:53;;;;;;;12.85;6.57;;;10.00;99.90;;;;;;4977031;28;20047;-72
2022/06/03 03:04:41;;;;;;;8.43;5.70;;;9.90;99.90;;;;;;4988301;28;20034;-71
2022/06/03 03:07:35;;;;;;;11.65;6.50;;;9.90;99.90;;;;;;4983938;28;20031;-72
2022/06/03 03:10:36;;;;;;;9.00;6.47;;;9.90;99.90;;;;;;4974025;28;20042;-72
2022/06/03 03:13:05;;;;;;;10.38;6.70;;;10.00;99.90;;;;;;4976315;28;20570;-72
2022/06/03 03:15:59;;;;;;;10.02;6.35;;;9.90;99.90;;;;;;4982002;28;20509;-71
2022/06/03 03:18:41;;;;;;;10.82;6.63;;;9.90;99.90;;;;;;4970461;28;20477;-72
2022/06/03 03:21:36;;;;;;;10.65;7.00;;;9.90;99.90;;;;;;4987825;28;20077;-72
2022/06/03 03:24:34;;;;;;;11.60;7.28;;;9.90;99.90;;;;;;4991660;28;20398;-72
2022/06/03 03:27:17;;;;;;;9.90;7.40;;;10.00;99.90;;;;;;4992783;28;20040;-72
2022/06/03 03:29:50;;;;;;;8.88;6.38;;;10.00;99.90;;;;;;4969769;28;20061;-72
2022/06/03 03:32:25;;;;;;;10.20;7.00;;;10.00;99.90;;;;;;4975614;28;20027;-72
2022/06/03 03:34:57;;;;;;;11.02;6.60;;;10.00;99.90;;;;;;4983265;28;20034;-73
2022/06/03 03:38:05;;;;;;;11.10;7.10;;;10.00;99.90;;;;;;4979285;28;20096;-72
2022/06/03 03:40:52;;;;;;;9.70;6.72;;;10.00;99.90;;;;;;4981745;28;20483;-72
2022/06/03 03:43:39;;;;;;;11.38;6.78;;;10.10;99.90;;;;;;4964081;28;20464;-71
2022/06/03 03:46:29;;;;;;;7.78;6.30;;;10.10;99.90;;;;;;4978745;28;20038;-71
2022/06/03 03:49:32;;;;;;;13.43;6.32;;;10.10;99.90;;;;;;4979824;28;20023;-72
2022/06/03 03:52:04;;;;;;;10.27;7.15;;;10.10;99.90;;;;;;4982162;28;20172;-73
2022/06/03 03:54:54;;;;;;;10.10;6.82;;;10.10;99.90;;;;;;4975546;28;20027;-73
2022/06/03 03:57:43;;;;;;;9.43;6.28;;;10.10;99.90;;;;;;4977935;28;20109;-71
2022/06/03 04:00:35;;;;;;;11.63;7.22;;;10.10;99.90;;;;;;4977246;28;20015;-71
2022/06/03 04:03:09;;;;;;;11.63;6.43;;;10.20;99.90;;;;;;4970828;28;20596;-72
2022/06/03 04:05:38;;;;;;;10.55;7.18;;;10.20;99.90;;;;;;4979587;28;20526;-72
2022/06/03 04:08:41;;;;;;;9.82;6.68;;;10.10;99.90;;;;;;4978288;28;20068;-71
2022/06/03 04:11:32;;;;;;;10.88;7.50;;;10.20;99.90;;;;;;4977853;28;20157;-71
2022/06/03 04:14:35;;;;;;;9.73;6.38;;;10.10;99.90;;;;;;4979003;28;20030;-72
2022/06/03 04:17:39;;;;;;;10.20;6.68;;;10.10;99.90;;;;;;4974740;28;20542;-71
2022/06/03 04:20:38;;;;;;;13.38;7.40;;;10.10;99.90;;;;;;4970356;28;20046;-71
2022/06/03 04:23:44;;;;;;;12.63;7.93;;;10.20;99.90;;;;;;4977047;28;20031;-72
2022/06/03 04:26:22;;;;;;;12.52;7.75;;;10.20;99.90;;;;;;4973576;28;20097;-72
2022/06/03 04:29:34;;;;;;;12.98;7.97;;;10.20;99.90;;;;;;4978138;28;20034;-72
2022/06/03 04:32:18;;;;;;;11.27;7.45;;;10.30;99.90;;;;;;4973142;28;20114;-72
2022/06/03 04:35:22;;;;;;;18.58;8.45;;;10.40;99.90;;;;;;4977296;28;20026;-73
2022/06/03 04:38:11;;;;;;;14.73;7.88;;;10.50;99.90;;;;;;4975341;28;20062;-72
2022/06/03 04:40:56;;;;;;;12.65;7.32;;;10.60;99.90;;;;;;4995141;28;20030;-72
2022/06/03 04:43:36;;;;;;;12.40;8.05;;;10.70;99.90;;;;;;4979831;28;20023;-72
2022/06/03 04:46:32;;;;;;;14.82;8.70;;;10.70;99.90;;;;;;4987727;28;20030;-72
2022/06/03 04:49:07;;;;;;;14.98;8.43;;;10.80;99.90;;;;;;4977170;28;20077;-72
2022/06/03 04:51:57;;;;;;;12.00;7.95;;;10.90;99.90;;;;;;4965977;28;20038;-73
2022/06/03 04:55:01;;;;;;;11.30;7.33;;;10.90;99.90;;;;;;4974373;28;20019;-72
2022/06/03 04:57:48;;;;;;;14.05;8.15;;;11.00;99.90;;;;;;4951894;28;20305;-72
2022/06/03 05:00:22;;;;;;;11.13;8.02;;;11.10;99.90;;;;;;4982128;28;20038;-72
2022/06/03 05:02:54;;;;;;;15.05;8.43;;;11.20;99.90;;;;;;4955288;28;20023;-72
2022/06/03 05:05:59;;;;;;;14.05;9.13;;;11.20;99.90;;;;;;4972402;28;20114;-72
2022/06/03 05:08:45;;;;;;;14.95;9.45;;;11.30;99.90;;;;;;4976120;28;20042;-72
2022/06/03 05:11:35;;;;;;;15.30;9.13;;;11.40;99.90;;;;;;4970440;28;20030;-72
2022/06/03 05:14:44;;;;;;;13.52;8.55;;;11.40;99.90;;;;;;4977108;28;20110;-73
2022/06/03 05:17:43;;;;;;;11.20;8.60;;;11.50;99.90;;;;;;4971825;28;20479;-72
2022/06/03 05:20:36;;;;;;;17.15;10.77;;;11.50;99.90;;;;;;4988897;28;20030;-71
2022/06/03 05:23:12;;;;;;;20.88;12.85;;;11.60;99.90;;;;;;4969164;28;20062;-72
2022/06/03 05:25:56;;;;;;;18.10;11.45;;;11.70;99.90;;;;;;4969275;28;20019;-73
2022/06/03 05:28:33;;;;;;;18.02;10.60;;;11.70;99.90;;;;;;4972653;28;20053;-72
2022/06/03 05:31:36;;;;;;;17.02;10.85;;;11.80;99.90;;;;;;4971186;28;20113;-75
2022/06/03 05:34:38;;;;;;;16.95;10.75;;;11.90;99.90;;;;;;4972962;28;20035;-73
2022/06/03 05:37:10;;;;;;;;;;;12.00;99.90;;;;;;4976255;28;20494;-73
2022/06/03 05:39:57;;;;;;;17.50;10.60;;;12.00;99.90;;;;;;4975042;28;20389;-73
2022/06/03 05:43:01;;;;;;;21.80;12.57;;;12.00;99.90;;;;;;4974162;28;20039;-73
2022/06/03 05:46:05;;;;;;;20.80;13.00;;;12.20;99.90;;;;;;4974149;28;20494;-73
2022/06/03 05:48:30;;;;;;;19.50;11.55;;;12.10;99.90;;;;;;4958713;28;20513;-73
2022/06/03 05:51:05;;;;;;;18.42;11.77;;;12.10;99.90;;;;;;4964041;28;20062;-74
2022/06/03 05:53:46;;;;;;;23.83;13.02;;;12.20;99.90;;;;;;4980398;28;20509;-74
2022/06/03 05:56:42;;;;;;;18.98;12.88;;;12.20;99.90;;;;;;4977416;28;20061;-73
2022/06/03 05:59:28;;;;;;;15.70;10.98;;;12.20;99.90;;;;;;4976616;28;20023;-73
2022/06/03 06:02:18;;;;;;;19.95;14.25;;;12.30;99.90;;;;;;4955474;28;20096;-73
2022/06/03 06:05:05;;;;;;;19.40;13.05;;;12.30;99.90;;;;;;4989527;28;20042;-73
2022/06/03 06:07:45;;;;;;;20.48;14.52;;;12.40;99.90;;;;;;4977686;28;20069;-73
2022/06/03 06:10:31;;;;;;;16.95;11.48;;;12.50;99.90;;;;;;4967225;28;20746;-72
2022/06/03 06:13:21;;;;;;;18.17;11.85;;;12.60;99.90;;;;;;4970549;28;20030;-73
2022/06/03 06:16:08;;;;;;;17.63;12.07;;;12.70;99.90;;;;;;4973163;28;20105;-73
2022/06/03 06:18:47;;;;;;;22.25;12.95;;;12.80;99.90;;;;;;4985739;28;20079;-72
2022/06/03 06:21:38;;;;;;;17.48;12.75;;;12.90;99.90;;;;;;4950765;28;21430;-73
2022/06/03 06:24:23;;;;;;;14.90;11.67;;;13.00;99.90;;;;;;4979394;28;20503;-73
2022/06/03 06:27:28;;;;;;;25.83;13.18;;;13.10;99.90;;;;;;4978167;28;20062;-73
2022/06/03 06:30:35;;;;;;;21.52;13.13;;;13.10;99.90;;;;;;4970700;28;20122;-73
2022/06/03 06:33:12;;;;;;;19.38;13.07;;;13.10;99.90;;;;;;4983590;28;20448;-73
2022/06/03 06:36:00;;;;;;;21.40;12.77;;;13.10;99.90;;;;;;4979824;28;20030;-73
2022/06/03 06:38:57;;;;;;;21.08;12.27;;;13.20;99.90;;;;;;4981048;28;20422;-73
2022/06/03 06:41:45;;;;;;;16.73;10.88;;;13.30;99.90;;;;;;4974463;28;20027;-74
2022/06/03 06:44:52;;;;;;;16.15;9.75;;;13.40;99.90;;;;;;4977599;28;20091;-74
2022/06/03 06:47:42;;;;;;;23.42;12.35;;;13.40;99.90;;;;;;4982376;28;20046;-74
2022/06/03 06:50:20;;;;;;;21.45;10.98;;;13.50;99.90;;;;;;4980924;28;20035;-74
2022/06/03 06:53:15;;;;;;;19.27;11.15;;;13.50;99.90;;;;;;4976492;28;20035;-73
2022/06/03 06:55:54;;;;;;;21.92;10.75;;;13.50;99.90;;;;;;4965536;28;20101;-72
2022/06/03 06:58:50;;;;;;;16.30;10.52;;;13.60;99.90;;;;;;4973367;28;20110;-73
2022/06/03 07:01:32;;;;;;;21.23;10.98;;;13.70;99.90;;;;;;4973937;28;20030;-73
2022/06/03 07:04:08;;;;;;;13.73;8.57;;;13.70;99.90;;;;;;4980141;28;20153;-73
2022/06/03 07:06:42;;;;;;;19.33;9.55;;;13.80;99.90;;;;;;4986417;28;20105;-73
2022/06/03 07:09:11;;;;;;;16.58;8.52;;;13.80;99.90;;;;;;4980669;28;20034;-74
2022/06/03 07:12:09;;;;;;;12.05;8.00;;;13.90;99.90;;;;;;4979778;28;20030;-73
2022/06/03 07:14:43;;;;;;;12.70;7.50;;;14.00;99.90;;;;;;4976750;28;20077;-73
2022/06/03 07:21:10;;;;;;;11.48;6.82;;;14.10;99.90;;;;;;4975770;28;20128;-73
2022/06/03 07:23:47;;;;;;;11.38;7.22;;;14.30;99.90;;;;;;4920677;29;20038;-73
2022/06/03 07:26:39;;;;;;;16.10;8.60;;;14.30;99.90;;;;;;4938839;29;20111;-73
2022/06/03 07:29:22;;;;;;;12.75;7.05;;;14.40;99.90;;;;;;4942954;29;20046;-73
2022/06/03 07:32:05;;;;;;;13.40;7.53;;;14.40;99.90;;;;;;4934977;29;20102;-73
2022/06/03 07:34:39;;;;;;;13.65;7.18;;;14.50;99.90;;;;;;4933837;29;20031;-73
2022/06/03 07:37:11;;;;;;;15.52;7.95;;;14.50;99.90;;;;;;4935996;29;20451;-73
2022/06/03 07:39:39;;;;;;;15.80;6.85;;;14.60;99.90;;;;;;4935301;28;20028;-74
2022/06/03 07:42:16;;;;;;;16.95;7.60;;;14.70;99.90;;;;;;4912377;29;20044;-74
2022/06/03 07:44:57;;;;;;;15.07;6.85;;;14.70;99.90;;;;;;4923709;29;20111;-73
2022/06/03 07:47:24;;;;;;;;;;;14.50;99.90;;;;;;4934189;29;20094;-74
2022/06/03 07:49:57;;;;;;;15.05;5.93;;;14.60;99.90;;;;;;4947230;28;22058;-74
2022/06/03 07:52:48;;;;;;;13.10;6.35;;;14.80;99.90;;;;;;4930346;29;20628;-74
2022/06/03 07:55:20;;;;;;;9.65;5.75;;;14.90;99.90;;;;;;4972003;28;20046;-74
2022/06/03 07:57:52;;;;;;;12.15;5.95;;;14.90;99.90;;;;;;4987604;28;20037;-74
2022/06/03 08:00:20;;;;;;;10.52;5.03;;;15.00;99.90;;;;;;4980966;28;20025;-74
2022/06/03 08:02:59;;;;;;;10.07;5.18;;;15.00;99.90;;;;;;4982209;28;20031;-74
2022/06/03 08:05:25;;;;;;;8.52;4.65;;;15.10;99.90;;;;;;4967019;28;20671;-72
2022/06/03 08:11:26;;;;;;;6.35;4.47;;;15.20;99.90;;;;;;4973476;28;20069;-74
2022/06/03 08:13:55;;;;;;;13.75;5.65;;;15.30;99.90;;;;;;4961613;28;20438;-73
2022/06/03 08:16:26;;;;;;;8.85;4.45;;;15.30;99.90;;;;;;4966570;28;20462;-74
2022/06/03 08:18:55;;;;;;;;;;;15.40;99.90;;;;;;4989703;28;20049;-74
2022/06/03 08:21:31;;;;;;;6.45;3.92;;;15.50;99.90;;;;;;4975411;28;19909;-73
2022/06/03 08:23:59;;;;;;;8.60;3.88;;;15.60;99.90;;;;;;4990471;28;20533;-73
2022/06/03 08:26:28;;;;;;;4.18;2.90;;;15.60;99.90;;;;;;4976556;28;20034;-74
2022/06/03 08:29:08;;;;;;;10.20;4.32;;;15.70;99.90;;;;;;4957274;28;20057;-74
2022/06/03 08:31:35;;;;;;;7.35;3.97;;;15.70;99.60;;;;;;4978358;28;20034;-74
2022/06/03 08:34:04;;;;;;;5.80;3.20;;;15.70;99.20;;;;;;4979545;28;20062;-74
2022/06/03 08:36:37;;;;;;;15.02;4.95;;;15.90;99.90;;;;;;4981546;28;20534;-72
2022/06/03 08:39:13;;;;;;;11.23;4.30;;;15.90;98.20;;;;;;4969408;28;20049;-74
2022/06/03 08:41:45;;;;;;;5.88;2.85;;;16.00;99.50;;;;;;4976522;28;20030;-73
2022/06/03 08:44:47;;;;;;;7.80;3.65;;;16.10;99.90;;;;;;4970323;28;20014;-73
2022/06/03 08:47:20;;;;;;;6.35;3.00;;;16.20;98.90;;;;;;4986972;28;20114;-73
2022/06/03 08:50:07;;;;;;;4.18;2.75;;;16.30;98.90;;;;;;4981383;28;20042;-74
2022/06/03 08:52:39;;;;;;;5.30;2.72;;;16.30;98.70;;;;;;4987189;28;20034;-74
2022/06/03 08:55:32;;;;;;;4.28;2.40;;;16.40;96.80;;;;;;4987794;28;20035;-74
2022/06/03 08:58:17;;;;;;;11.40;3.50;;;16.40;97.50;;;;;;4981167;28;20479;-73
2022/06/03 09:01:02;;;;;;;5.00;2.63;;;16.40;95.70;;;;;;4981242;28;20030;-72
2022/06/03 09:03:32;;;;;;;4.32;2.03;;;16.40;96.20;;;;;;4985898;28;20030;-74
2022/06/03 09:06:06;;;;;;;4.45;2.13;;;16.40;96.10;;;;;;4976084;28;20027;-73
2022/06/03 09:08:57;;;;;;;4.25;2.10;;;16.50;95.00;;;;;;4967308;28;20027;-73
2022/06/03 09:11:33;;;;;;;4.55;2.03;;;16.50;93.40;;;;;;4974314;28;20502;-74
2022/06/03 09:14:10;;;;;;;5.63;2.13;;;16.60;93.10;;;;;;4950021;28;20058;-73
2022/06/03 09:16:38;;;;;;;7.32;2.72;;;16.60;94.00;;;;;;4958455;28;20035;-74
2022/06/03 09:19:10;;;;;;;4.30;1.95;;;16.70;93.70;;;;;;4985292;28;20027;-73
2022/06/03 09:21:41;;;;;;;7.45;3.90;;;16.70;94.30;;;;;;4970217;28;20045;-74
2022/06/03 09:24:10;;;;;;;6.45;2.90;;;16.70;93.90;;;;;;4972398;28;20049;-74
2022/06/03 09:26:41;;;;;;;5.57;2.45;;;16.80;94.30;;;;;;4979954;28;20074;-74
2022/06/03 09:29:11;;;;;;;4.50;2.10;;;16.80;92.00;;;;;;4970494;28;20035;-73
2022/06/03 09:31:40;;;;;;;3.13;1.77;;;16.90;93.40;;;;;;4955820;28;20042;-73
2022/06/03 09:34:08;;;;;;;3.13;1.90;;;16.90;93.50;;;;;;4963596;28;20049;-74
2022/06/03 09:36:34;;;;;;;3.03;1.83;;;17.00;93.20;;;;;;4978714;28;20065;-73
2022/06/03 09:39:23;;;;;;;4.35;1.60;;;17.00;93.00;;;;;;4961144;28;20730;-72
2022/06/03 09:41:55;;;;;;;6.45;2.03;;;17.00;92.40;;;;;;4954039;28;20474;-73
2022/06/03 09:44:23;;;;;;;4.28;1.70;;;17.10;91.90;;;;;;4957241;28;20062;-73
2022/06/03 09:46:57;;;;;;;5.18;1.52;;;17.20;92.20;;;;;;4959836;28;20031;-73
2022/06/03 09:49:24;;;;;;;7.85;2.22;;;17.30;90.20;;;;;;4955780;28;20035;-73
2022/06/03 09:51:56;;;;;;;5.30;1.90;;;17.40;91.20;;;;;;4958693;28;20110;-73
2022/06/03 09:54:28;;;;;;;2.92;1.50;;;17.50;91.00;;;;;;4959004;28;20034;-74
2022/06/03 09:57:04;;;;;;;2.58;1.60;;;17.60;90.70;;;;;;4955154;28;21138;-73
2022/06/03 09:59:31;;;;;;;4.38;2.22;;;17.60;90.10;;;;;;4967792;28;20027;-73
2022/06/03 10:01:57;;;;;;;3.80;1.83;;;17.60;82.90;;;;;;4956929;28;20086;-73
2022/06/03 10:04:24;;;;;;;4.25;1.63;;;17.70;83.40;;;;;;4966218;28;20046;-73
2022/06/03 10:06:50;;;;;;;3.55;1.90;;;17.80;83.90;;;;;;4965380;28;20457;-73
2022/06/03 10:15:37;;;;;;;3.08;1.35;;;17.80;82.00;;;;;;4976643;28;20058;-73
2022/06/03 10:17:34;;;;;;;2.28;1.45;;;17.90;79.00;;;;;;4977394;28;20106;-73
2022/06/03 10:20:00;;;;;;;3.13;1.33;;;17.90;79.80;;;;;;4976645;28;20033;-74
2022/06/03 10:22:26;;;;;;;4.72;2.13;;;18.00;82.50;;;;;;4975151;28;20022;-73
2022/06/03 10:24:55;;;;;;;4.55;1.55;;;18.00;80.70;;;;;;4958843;28;20443;-74
2022/06/03 10:27:21;;;;;;;5.43;1.95;;;18.10;83.20;;;;;;4979849;28;20057;-74
2022/06/03 10:29:51;;;;;;;2.65;1.65;;;18.20;74.80;;;;;;4973478;28;20797;-73
2022/06/03 10:32:21;;;;;;;4.60;1.80;;;18.20;75.60;;;;;;4975087;28;20026;-73
2022/06/03 10:34:47;;;;;;;1.45;1.20;;;18.20;77.50;;;;;;4975755;28;20403;-73
2022/06/03 10:37:25;;;;;;;1.95;1.20;;;18.30;78.40;;;;;;4993920;28;20033;-73
2022/06/03 10:39:55;;;;;;;2.63;1.45;;;18.30;79.50;;;;;;5012451;28;20037;-73
2022/06/03 10:42:23;;;;;;;1.92;0.98;;;18.40;76.10;;;;;;5001615;28;20034;-73
2022/06/03 10:44:55;;;;;;;2.67;1.30;;;18.40;79.20;;;;;;5006148;28;20106;-74
2022/06/03 10:47:31;;;;;;;3.47;1.98;;;18.50;79.00;;;;;;4990152;28;20030;-74
2022/06/03 10:49:59;;;;;;;2.50;1.20;;;18.60;71.60;;;;;;4986110;28;20133;-73
2022/06/03 11:01:09;;;;;;;3.78;1.60;;;18.80;71.40;;;;;;4979308;28;20022;-73
2022/06/03 11:03:41;;;;;;;3.00;1.52;;;18.80;72.60;;;;;;4977983;28;20041;-73
2022/06/03 11:06:14;;;;;;;3.20;1.45;;;19.00;70.90;;;;;;4974379;28;20027;-73
2022/06/03 11:09:05;;;;;;;5.65;1.70;;;19.10;70.00;;;;;;4980739;28;20597;-73
2022/06/03 11:11:43;;;;;;;2.13;1.30;;;19.20;62.40;;;;;;4975032;28;20057;-73
2022/06/03 11:14:38;;;;;;;2.97;1.55;;;19.60;64.00;;;;;;4980477;28;20034;-74
2022/06/03 11:17:13;;;;;;;1.75;1.33;;;20.30;64.60;;;;;;4979886;28;20061;-73
2022/06/03 11:19:45;;;;;;;5.28;1.58;;;21.80;66.20;;;;;;4990399;28;20027;-74
2022/06/03 11:22:23;;;;;;;4.20;1.50;;;23.80;63.00;;;;;;4979179;28;20497;-73
2022/06/03 11:25:12;;;;;;;2.40;1.27;;;26.00;58.70;;;;;;4984292;28;20094;-73
2022/06/03 11:28:12;;;;;;;1.85;1.23;;;27.90;53.90;;;;;;4977720;28;20113;-73
2022/06/03 11:31:07;;;;;;;1.48;1.30;;;29.90;48.40;;;;;;4979067;28;20050;-73
2022/06/03 11:33:48;;;;;;;3.40;1.65;;;31.60;43.30;;;;;;4968886;28;20051;-74
2022/06/03 11:36:28;;;;;;;3.38;1.40;;;33.20;39.80;;;;;;4984026;28;20202;-73
2022/06/03 11:39:22;;;;;;;2.72;1.45;;;34.70;37.60;;;;;;4984980;28;20406;-74
2022/06/03 11:42:03;;;;;;;1.88;1.27;;;35.70;35.70;;;;;;4984982;28;20027;-74
2022/06/03 11:44:29;;;;;;;2.38;1.40;;;36.80;34.40;;;;;;4976080;28;20238;-74
2022/06/03 11:47:17;;;;;;;2.97;1.38;;;37.20;34.00;;;;;;4978168;28;20117;-74
2022/06/03 11:49:43;;;;;;;1.90;1.30;;;37.50;34.00;;;;;;4978600;28;20039;-73
2022/06/03 11:52:09;;;;;;;2.17;1.33;;;37.10;33.40;;;;;;4980196;28;20057;-74
2022/06/03 11:54:37;;;;;;;1.77;1.23;;;36.70;33.20;;;;;;4978745;28;20026;-73
2022/06/03 11:57:03;;;;;;;1.92;1.23;;;36.10;33.20;;;;;;4964750;28;20038;-73
2022/06/03 11:59:41;;;;;;;4.05;1.73;;;35.40;31.90;;;;;;4968970;28;20025;-73
2022/06/03 12:02:31;;;;;;;2.30;1.50;;;34.30;30.40;;;;;;4981134;28;20806;-73
2022/06/03 12:05:00;;;;;;;2.55;1.50;;;32.80;34.50;;;;;;4978782;28;20026;-72
2022/06/03 12:07:58;;;;;;;2.30;1.35;;;32.70;35.40;;;;;;4984337;28;20042;-74
2022/06/03 12:10:42;;;;;;;1.83;1.40;;;32.70;35.30;;;;;;4976873;28;20030;-75
2022/06/03 12:13:23;;;;;;;3.63;1.42;;;33.00;35.70;;;;;;4976766;28;20023;-74
2022/06/03 12:15:57;;;;;;;27.60;8.52;;;33.10;32.80;;;;;;4975794;28;20392;-74
2022/06/03 12:18:35;;;;;;;8.50;4.32;;;33.50;34.90;;;;;;4976671;28;20082;-75
2022/06/03 12:21:34;;;;;;;13.02;4.35;;;33.70;33.70;;;;;;4985464;28;20034;-74
2022/06/03 12:24:26;;;;;;;23.27;15.90;;;33.80;32.80;;;;;;4978947;28;20031;-74
2022/06/03 12:26:53;;;;;;;7.47;5.28;;;34.10;33.80;;;;;;4969631;28;20474;-75
2022/06/03 12:29:30;;;;;;;8.13;6.13;;;34.20;31.10;;;;;;4979920;28;20039;-75
2022/06/03 12:32:11;;;;;;;3.03;2.10;;;34.10;31.30;;;;;;4973812;28;20026;-80
2022/06/03 12:34:37;;;;;;;2.80;1.65;;;34.40;31.90;;;;;;4994675;28;20154;-77
2022/06/03 12:37:22;;;;;;;3.53;2.60;;;34.80;31.80;;;;;;4980131;28;20097;-76
2022/06/03 12:40:00;;;;;;;3.55;2.30;;;34.90;32.10;;;;;;4964598;28;20033;-77
2022/06/03 12:42:29;;;;;;;4.38;2.00;;;34.90;33.00;;;;;;4986585;28;20034;-78
2022/06/03 12:45:12;;;;;;;4.60;1.98;;;35.00;32.60;;;;;;4968760;28;20044;-84
2022/06/03 12:47:39;;;;;;;2.25;1.23;;;35.00;30.30;;;;;;4985882;28;20030;-78
2022/06/03 12:50:05;;;;;;;1.63;1.15;;;35.20;31.40;;;;;;4989451;28;20022;-83
2022/06/03 12:52:33;;;;;;;1.58;1.13;;;35.50;28.70;;;;;;4984954;28;20023;-81
2022/06/03 12:55:16;;;;;;;1.30;1.00;;;35.60;30.10;;;;;;4987425;28;20439;-80
2022/06/03 12:58:01;;;;;;;1.65;1.00;;;35.80;30.60;;;;;;4985486;28;20038;-78
2022/06/03 13:00:32;;;;;;;1.80;1.23;;;36.20;30.40;;;;;;4982616;28;20030;-74
2022/06/03 13:03:03;;;;;;;1.52;0.90;;;36.10;30.80;;;;;;4985315;28;20038;-74
2022/06/03 13:05:45;;;;;;;1.77;1.30;;;36.30;31.20;;;;;;4980609;28;20026;-73
2022/06/03 13:08:15;;;;;;;2.30;1.20;;;36.60;30.00;;;;;;4974091;28;20026;-74
2022/06/03 13:11:00;;;;;;;1.92;1.20;;;37.10;29.00;;;;;;4978321;28;20513;-75
2022/06/03 13:13:34;;;;;;;1.17;1.08;;;37.50;29.40;;;;;;4976360;28;20046;-76
2022/06/03 13:16:19;;;;;;;2.03;1.30;;;37.90;29.50;;;;;;4978249;28;20601;-77
2022/06/03 13:18:49;;;;;;;1.83;1.17;;;37.90;27.50;;;;;;4980974;28;20473;-74
2022/06/03 13:21:21;;;;;;;2.35;1.17;;;38.30;29.70;;;;;;4978706;28;20059;-78
2022/06/03 13:23:49;;;;;;;1.90;1.20;;;38.80;28.40;;;;;;4985557;28;20117;-78
2022/06/03 13:26:21;;;;;;;1.63;1.20;;;39.40;27.70;;;;;;4982289;28;20064;-76
2022/06/03 13:28:50;;;;;;;3.03;1.23;;;39.40;29.00;;;;;;4984148;28;20023;-74
2022/06/03 13:31:26;;;;;;;3.17;1.10;;;39.60;27.20;;;;;;4959465;28;20363;-75
2022/06/03 13:34:10;;;;;;;2.45;1.25;;;40.00;28.10;;;;;;4979864;28;20026;-76
2022/06/03 13:36:52;;;;;;;3.97;1.33;;;40.30;28.00;;;;;;4978791;28;20534;-74
2022/06/03 13:39:24;;;;;;;2.00;1.27;;;39.80;26.60;;;;;;4980631;28;20034;-74
2022/06/03 13:45:01;;;;;;;1.77;1.20;;;39.90;27.90;;;;;;4984680;28;20032;-76
2022/06/03 13:47:30;;;;;;;1.58;1.15;;;40.30;27.60;;;;;;4984532;28;20031;-76
2022/06/03 13:50:03;;;;;;;2.93;1.30;;;39.90;27.20;;;;;;4984271;28;20098;-76
2022/06/03 13:52:36;;;;;;;2.28;1.23;;;40.10;27.90;;;;;;4983327;28;20645;-75
2022/06/03 13:55:26;;;;;;;2.15;1.20;;;40.10;27.80;;;;;;4987994;28;20034;-76
2022/06/03 13:57:59;;;;;;;2.20;1.10;;;40.20;28.00;;;;;;4980196;28;20031;-76
2022/06/03 14:00:31;;;;;;;1.65;1.40;;;40.10;27.50;;;;;;4980753;28;20059;-74
2022/06/03 14:03:29;;;;;;;2.03;1.25;;;38.50;27.10;;;;;;4983746;28;20034;-75
2022/06/03 14:05:59;;;;;;;1.80;1.45;;;37.10;26.90;;;;;;4979646;28;20320;-75
2022/06/03 14:08:42;;;;;;;1.35;1.00;;;38.60;28.20;;;;;;4982131;28;20483;-75
2022/06/03 14:11:42;;;;;;;1.83;1.23;;;39.50;28.30;;;;;;4984009;28;20033;-76
2022/06/03 14:14:17;;;;;;;1.88;1.10;;;39.90;28.00;;;;;;4959670;28;20051;-75
2022/06/03 14:17:07;;;;;;;2.20;1.13;;;40.60;28.00;;;;;;4977976;28;20026;-74
2022/06/03 14:19:57;;;;;;;3.38;1.45;;;40.80;27.30;;;;;;4977166;28;20051;-74
2022/06/03 14:22:26;;;;;;;2.28;1.08;;;40.90;27.50;;;;;;4982805;28;20080;-75